Historyczne dane pomiarowe

Dodano dane terminowe – wersja testowa.

Dane z okresu 1951-2019

Wersja bazy: 1.34 [2019-03-16, lista zmian], aktualizacja planowana na 2019-04-15

Dane meteo z obszaru Polski uzyskane na podstawie danych udostępnionych przez Instytut Meteorologii i Gospodarki Wodnej – Państwowy Instytut Badawczy.

 

Wybierz Datę:    

       

TemperaturaWilgotnośćZachmurzenieWiatrCiśnienieWidzialnośćZjawiska
 Data    tng td wb rh cc ccl cl cm ch dir g1 g2 mslp ppp      
1994-08-04 00:00:00 12.6--- 11.5 12.093wxwx0wx--1023.9 982.8 0.0---wx
1994-08-04 01:00:00 11.4--- 10.9 11.197wxwx0wx--1023.9 982.6----wx
1994-08-04 02:00:00 10.6--- 10.2 10.498wxwx0wx--1024.0 982.6----wx
1994-08-04 03:00:00 10.0--- 9.3 9.695wxwx0wx--1024.3 982.8----wx
1994-08-04 04:00:00 10.0--- 9.3 9.695wxwxwx0wx--1024.4 982.9----wx
1994-08-04 05:00:00 11.6--- 10.5 11.093wxwxwx0wx--1024.4 983.1----wx
1994-08-04 06:00:00 14.9--- 12.5 13.586wxwx0wx--1024.0 983.2 0.0---wx
1994-08-04 07:00:00 19.1--- 13.9 15.972wxwxwx0wx--1023.4 983.2----wx
1994-08-04 08:00:00 23.6--- 17.0 19.367wxwxwx0wx--1022.7 983.1----wx
1994-08-04 09:00:00 25.5--- 14.8 18.752wxwxwx0wx--1022.6 983.2----wx
1994-08-04 10:00:00 26.3--- 13.1 18.144wxwxwx1wx--1022.1 982.9----wx
1994-08-04 11:00:00 26.9--- 12.7 18.141wxwxwx1wx--1021.7 982.6----wx
1994-08-04 12:00:00 27.9--- 13.6 18.942wxwxwxwx1wx--1021.6 982.6 0.0---wx
1994-08-04 13:00:00 28.3--- 12.1 18.337wxwxwx1wx--1020.9 982.0----wx
1994-08-04 14:00:00 28.5--- 12.8 18.738wxwxwx2wx--1020.7 981.8----wx
1994-08-04 15:00:00 28.6--- 12.7 18.738wxwxwx1wx--1020.5 981.6----wx
1994-08-04 16:00:00 28.3--- 14.5 19.543wxwxwx0wx--1020.1 981.2----wx
1994-08-04 17:00:00 26.7--- 11.1 17.338wxwxwx0wx--1020.5 981.4----wx
1994-08-04 18:00:00 24.9--- 12.5 17.346wxwxwx0wx--1021.0 981.6 0.0---wx
1994-08-04 19:00:00 20.5--- 12.9 15.962wxwxwx0wx--1022.0 982.0----wx
1994-08-04 20:00:00 18.1--- 12.6 14.870wxwx0wx--1022.7 982.4----wx
1994-08-04 21:00:00 15.9--- 12.5 13.980wxwx0wx--1023.2 982.5----wx
1994-08-04 22:00:00 14.4--- 11.6 12.883wxwx0wx--1023.7 982.8----wx
1994-08-04 23:00:00 14.2--- 11.8 12.885wxwx0wx--1023.7 982.8----wx

 

Źródłem pochodzenia danych jest Instytut Meteorologii i Gospodarki Wodnej – Państwowy Instytut Badawczy. Dane Instytutu Meteorologii i Gospodarki Wodnej – Państwowego Instytutu Badawczego zostały przetworzone.

Dane źródłowe można odnaleźć na stronie https://dane.imgw.pl